Parrot, Kentucky
Current Conditions -  °F | °C
As of 10:15 PM on Saturday 22 Nov 2014 (Local Time) from KI39 Reporting Station
Clear Clear  
Wind Chill: 52°   Ceiling: Unl
Heat Index: 52°   Visibility: 10mi
Dew Point: 34°   Wind: 6mph
Humidity: 50%   Direction: 160°SSE
Pressure: 30.13"   Gusts: NA
Location:  37.4446°N, 84.0227°W
Report Text: KI39 230315Z AUTO 16005KT 10SM CLR 11/01 A3013 RMK AO2
Loading
Personal Weather Stations






























Interactive Weather Map New forecast layout! Learn more

10-Day Weather Forecast

Advertisements
Track Severe Weather on mobile